sensor_id;sensor_type;location;lat;lon;timestamp;P1;durP1;ratioP1;P2;durP2;ratioP2
61036;SDS011;57313;47.040;15.498;2022-07-25T00:01:57;16.90;;;11.45;;
61036;SDS011;57313;47.040;15.498;2022-07-25T00:04:25;20.42;;;11.30;;
61036;SDS011;57313;47.040;15.498;2022-07-25T00:06:53;18.35;;;11.63;;
61036;SDS011;57313;47.040;15.498;2022-07-25T00:09:20;18.70;;;11.40;;
61036;SDS011;57313;47.040;15.498;2022-07-25T00:11:50;19.27;;;11.88;;
61036;SDS011;57313;47.040;15.498;2022-07-25T00:14:18;19.52;;;12.57;;
61036;SDS011;57313;47.040;15.498;2022-07-25T00:16:45;18.83;;;12.05;;
61036;SDS011;57313;47.040;15.498;2022-07-25T00:19:13;19.55;;;12.25;;
61036;SDS011;57313;47.040;15.498;2022-07-25T00:21:40;18.73;;;12.23;;
61036;SDS011;57313;47.040;15.498;2022-07-25T00:24:08;18.50;;;11.75;;
61036;SDS011;57313;47.040;15.498;2022-07-25T00:26:36;18.23;;;12.18;;
61036;SDS011;57313;47.040;15.498;2022-07-25T00:29:07;20.55;;;11.57;;
61036;SDS011;57313;47.040;15.498;2022-07-25T00:31:34;17.40;;;11.68;;
61036;SDS011;57313;47.040;15.498;2022-07-25T00:34:02;17.27;;;11.43;;
61036;SDS011;57313;47.040;15.498;2022-07-25T00:36:30;19.60;;;12.32;;
61036;SDS011;57313;47.040;15.498;2022-07-25T00:38:58;18.83;;;12.73;;
61036;SDS011;57313;47.040;15.498;2022-07-25T00:41:25;21.10;;;12.02;;
61036;SDS011;57313;47.040;15.498;2022-07-25T00:43:53;17.27;;;11.07;;
61036;SDS011;57313;47.040;15.498;2022-07-25T00:46:22;19.00;;;12.23;;
61036;SDS011;57313;47.040;15.498;2022-07-25T00:48:49;19.17;;;12.13;;
61036;SDS011;57313;47.040;15.498;2022-07-25T00:51:17;17.90;;;11.57;;
61036;SDS011;57313;47.040;15.498;2022-07-25T00:53:45;17.52;;;11.52;;
61036;SDS011;57313;47.040;15.498;2022-07-25T00:56:14;18.02;;;11.95;;
61036;SDS011;57313;47.040;15.498;2022-07-25T00:58:43;20.98;;;13.38;;
61036;SDS011;57313;47.040;15.498;2022-07-25T01:01:11;21.75;;;11.88;;
61036;SDS011;57313;47.040;15.498;2022-07-25T01:03:41;20.63;;;11.07;;
61036;SDS011;57313;47.040;15.498;2022-07-25T01:06:09;19.52;;;12.68;;
61036;SDS011;57313;47.040;15.498;2022-07-25T01:08:37;19.60;;;11.10;;
61036;SDS011;57313;47.040;15.498;2022-07-25T01:11:05;18.20;;;12.07;;
61036;SDS011;57313;47.040;15.498;2022-07-25T01:13:33;19.00;;;12.25;;
61036;SDS011;57313;47.040;15.498;2022-07-25T01:16:00;17.00;;;11.88;;
61036;SDS011;57313;47.040;15.498;2022-07-25T01:18:28;18.83;;;12.30;;
61036;SDS011;57313;47.040;15.498;2022-07-25T01:20:57;21.17;;;12.63;;
61036;SDS011;57313;47.040;15.498;2022-07-25T01:23:24;19.58;;;12.85;;
61036;SDS011;57313;47.040;15.498;2022-07-25T01:25:52;19.40;;;11.80;;
61036;SDS011;57313;47.040;15.498;2022-07-25T01:28:20;22.23;;;12.60;;
61036;SDS011;57313;47.040;15.498;2022-07-25T01:30:48;19.52;;;12.77;;
61036;SDS011;57313;47.040;15.498;2022-07-25T01:33:15;18.23;;;11.85;;
61036;SDS011;57313;47.040;15.498;2022-07-25T01:35:43;17.80;;;12.52;;
61036;SDS011;57313;47.040;15.498;2022-07-25T01:38:13;19.40;;;11.77;;
61036;SDS011;57313;47.040;15.498;2022-07-25T01:40:42;22.58;;;12.38;;
61036;SDS011;57313;47.040;15.498;2022-07-25T01:43:12;21.77;;;11.30;;
61036;SDS011;57313;47.040;15.498;2022-07-25T01:45:39;18.33;;;12.43;;
61036;SDS011;57313;47.040;15.498;2022-07-25T01:48:07;22.48;;;12.88;;
61036;SDS011;57313;47.040;15.498;2022-07-25T01:50:35;22.15;;;12.65;;
61036;SDS011;57313;47.040;15.498;2022-07-25T01:53:04;18.55;;;12.55;;
61036;SDS011;57313;47.040;15.498;2022-07-25T01:55:32;19.00;;;12.10;;
61036;SDS011;57313;47.040;15.498;2022-07-25T01:58:00;19.65;;;12.15;;
61036;SDS011;57313;47.040;15.498;2022-07-25T02:00:28;19.05;;;12.52;;
61036;SDS011;57313;47.040;15.498;2022-07-25T02:02:56;19.15;;;12.38;;
61036;SDS011;57313;47.040;15.498;2022-07-25T02:05:24;18.23;;;12.73;;
61036;SDS011;57313;47.040;15.498;2022-07-25T02:07:51;23.92;;;12.27;;
61036;SDS011;57313;47.040;15.498;2022-07-25T02:10:19;20.80;;;12.68;;
61036;SDS011;57313;47.040;15.498;2022-07-25T02:12:48;18.52;;;11.52;;
61036;SDS011;57313;47.040;15.498;2022-07-25T02:15:16;18.70;;;12.70;;
61036;SDS011;57313;47.040;15.498;2022-07-25T02:17:43;19.23;;;11.73;;
61036;SDS011;57313;47.040;15.498;2022-07-25T02:20:11;17.83;;;11.90;;
61036;SDS011;57313;47.040;15.498;2022-07-25T02:22:38;20.05;;;12.45;;
61036;SDS011;57313;47.040;15.498;2022-07-25T02:25:06;24.52;;;13.10;;
61036;SDS011;57313;47.040;15.498;2022-07-25T02:27:34;21.52;;;13.23;;
61036;SDS011;57313;47.040;15.498;2022-07-25T02:30:03;19.80;;;12.50;;
61036;SDS011;57313;47.040;15.498;2022-07-25T02:32:31;21.55;;;12.90;;
61036;SDS011;57313;47.040;15.498;2022-07-25T02:34:58;17.95;;;11.60;;
61036;SDS011;57313;47.040;15.498;2022-07-25T02:37:26;19.42;;;12.52;;
61036;SDS011;57313;47.040;15.498;2022-07-25T02:39:53;20.20;;;12.80;;
61036;SDS011;57313;47.040;15.498;2022-07-25T02:42:21;19.65;;;12.88;;
61036;SDS011;57313;47.040;15.498;2022-07-25T02:44:49;20.50;;;13.30;;
61036;SDS011;57313;47.040;15.498;2022-07-25T02:47:19;19.60;;;12.57;;
61036;SDS011;57313;47.040;15.498;2022-07-25T02:49:46;21.73;;;13.05;;
61036;SDS011;57313;47.040;15.498;2022-07-25T02:52:14;20.83;;;12.95;;
61036;SDS011;57313;47.040;15.498;2022-07-25T02:54:41;18.90;;;12.50;;
61036;SDS011;57313;47.040;15.498;2022-07-25T02:57:09;20.67;;;12.30;;
61036;SDS011;57313;47.040;15.498;2022-07-25T02:59:36;21.00;;;12.70;;
61036;SDS011;57313;47.040;15.498;2022-07-25T03:02:04;24.67;;;12.40;;
61036;SDS011;57313;47.040;15.498;2022-07-25T03:04:34;18.70;;;12.50;;
61036;SDS011;57313;47.040;15.498;2022-07-25T03:07:02;18.90;;;12.40;;
61036;SDS011;57313;47.040;15.498;2022-07-25T03:09:29;20.73;;;12.40;;
61036;SDS011;57313;47.040;15.498;2022-07-25T03:11:56;20.52;;;12.82;;
61036;SDS011;57313;47.040;15.498;2022-07-25T03:14:24;23.55;;;13.32;;
61036;SDS011;57313;47.040;15.498;2022-07-25T03:16:52;23.75;;;13.38;;
61036;SDS011;57313;47.040;15.498;2022-07-25T03:19:19;21.17;;;12.85;;
61036;SDS011;57313;47.040;15.498;2022-07-25T03:21:49;23.42;;;12.93;;
61036;SDS011;57313;47.040;15.498;2022-07-25T03:24:16;21.60;;;12.38;;
61036;SDS011;57313;47.040;15.498;2022-07-25T03:26:44;24.90;;;12.57;;
61036;SDS011;57313;47.040;15.498;2022-07-25T03:29:12;23.73;;;13.85;;
61036;SDS011;57313;47.040;15.498;2022-07-25T03:31:39;22.65;;;13.15;;
61036;SDS011;57313;47.040;15.498;2022-07-25T03:34:07;19.35;;;12.23;;
61036;SDS011;57313;47.040;15.498;2022-07-25T03:36:35;21.92;;;13.25;;
61036;SDS011;57313;47.040;15.498;2022-07-25T03:39:05;20.88;;;12.93;;
61036;SDS011;57313;47.040;15.498;2022-07-25T03:41:32;24.63;;;13.80;;
61036;SDS011;57313;47.040;15.498;2022-07-25T03:44:00;55.70;;;31.13;;
61036;SDS011;57313;47.040;15.498;2022-07-25T03:46:28;28.63;;;17.83;;
61036;SDS011;57313;47.040;15.498;2022-07-25T03:48:56;22.65;;;13.52;;
61036;SDS011;57313;47.040;15.498;2022-07-25T03:51:23;23.58;;;15.57;;
61036;SDS011;57313;47.040;15.498;2022-07-25T03:53:50;28.85;;;14.32;;
61036;SDS011;57313;47.040;15.498;2022-07-25T03:56:20;22.42;;;12.50;;
61036;SDS011;57313;47.040;15.498;2022-07-25T03:58:47;23.80;;;12.13;;
61036;SDS011;57313;47.040;15.498;2022-07-25T04:01:15;20.15;;;13.00;;
61036;SDS011;57313;47.040;15.498;2022-07-25T04:03:44;20.60;;;13.18;;
61036;SDS011;57313;47.040;15.498;2022-07-25T04:06:12;21.85;;;14.20;;
61036;SDS011;57313;47.040;15.498;2022-07-25T04:08:39;20.25;;;13.18;;
61036;SDS011;57313;47.040;15.498;2022-07-25T04:11:07;24.00;;;12.63;;
61036;SDS011;57313;47.040;15.498;2022-07-25T04:13:36;20.15;;;12.82;;
61036;SDS011;57313;47.040;15.498;2022-07-25T04:16:04;19.25;;;12.40;;
61036;SDS011;57313;47.040;15.498;2022-07-25T04:18:38;25.77;;;13.27;;
61036;SDS011;57313;47.040;15.498;2022-07-25T04:21:06;23.85;;;12.82;;
61036;SDS011;57313;47.040;15.498;2022-07-25T04:23:34;20.45;;;12.65;;
61036;SDS011;57313;47.040;15.498;2022-07-25T04:26:02;18.48;;;12.15;;
61036;SDS011;57313;47.040;15.498;2022-07-25T04:28:31;24.10;;;12.32;;
61036;SDS011;57313;47.040;15.498;2022-07-25T04:31:00;21.65;;;13.93;;
61036;SDS011;57313;47.040;15.498;2022-07-25T04:33:27;21.00;;;13.35;;
61036;SDS011;57313;47.040;15.498;2022-07-25T04:35:55;22.58;;;12.80;;
61036;SDS011;57313;47.040;15.498;2022-07-25T04:38:22;22.17;;;13.38;;
61036;SDS011;57313;47.040;15.498;2022-07-25T04:40:49;21.52;;;12.75;;
61036;SDS011;57313;47.040;15.498;2022-07-25T04:43:17;22.55;;;14.18;;
61036;SDS011;57313;47.040;15.498;2022-07-25T04:45:46;21.55;;;14.50;;
61036;SDS011;57313;47.040;15.498;2022-07-25T04:48:15;21.80;;;14.60;;
61036;SDS011;57313;47.040;15.498;2022-07-25T04:50:42;21.95;;;14.25;;
61036;SDS011;57313;47.040;15.498;2022-07-25T04:53:10;20.17;;;13.75;;
61036;SDS011;57313;47.040;15.498;2022-07-25T04:55:38;22.83;;;13.60;;
61036;SDS011;57313;47.040;15.498;2022-07-25T04:58:05;25.00;;;13.27;;
61036;SDS011;57313;47.040;15.498;2022-07-25T05:00:33;24.02;;;14.45;;
61036;SDS011;57313;47.040;15.498;2022-07-25T05:03:01;21.05;;;14.55;;
61036;SDS011;57313;47.040;15.498;2022-07-25T05:05:31;20.98;;;14.07;;
61036;SDS011;57313;47.040;15.498;2022-07-25T05:07:58;24.80;;;14.07;;
61036;SDS011;57313;47.040;15.498;2022-07-25T05:10:27;23.90;;;13.98;;
61036;SDS011;57313;47.040;15.498;2022-07-25T05:12:56;26.25;;;13.77;;
61036;SDS011;57313;47.040;15.498;2022-07-25T05:15:24;24.05;;;14.57;;
61036;SDS011;57313;47.040;15.498;2022-07-25T05:17:51;20.92;;;14.20;;
61036;SDS011;57313;47.040;15.498;2022-07-25T05:20:19;23.25;;;13.52;;
61036;SDS011;57313;47.040;15.498;2022-07-25T05:22:48;24.92;;;13.57;;
61036;SDS011;57313;47.040;15.498;2022-07-25T05:25:16;24.42;;;13.07;;
61036;SDS011;57313;47.040;15.498;2022-07-25T05:27:43;23.13;;;14.32;;
61036;SDS011;57313;47.040;15.498;2022-07-25T05:30:11;21.83;;;13.68;;
61036;SDS011;57313;47.040;15.498;2022-07-25T05:32:39;21.88;;;14.02;;
61036;SDS011;57313;47.040;15.498;2022-07-25T05:35:07;23.00;;;13.65;;
61036;SDS011;57313;47.040;15.498;2022-07-25T05:37:35;20.63;;;13.93;;
61036;SDS011;57313;47.040;15.498;2022-07-25T05:40:06;24.95;;;13.85;;
61036;SDS011;57313;47.040;15.498;2022-07-25T05:42:34;23.90;;;14.35;;
61036;SDS011;57313;47.040;15.498;2022-07-25T05:45:01;21.75;;;13.90;;
61036;SDS011;57313;47.040;15.498;2022-07-25T05:47:29;21.95;;;13.20;;
61036;SDS011;57313;47.040;15.498;2022-07-25T05:49:56;20.52;;;12.40;;
61036;SDS011;57313;47.040;15.498;2022-07-25T05:52:24;20.40;;;12.82;;
61036;SDS011;57313;47.040;15.498;2022-07-25T05:54:51;19.42;;;12.73;;
61036;SDS011;57313;47.040;15.498;2022-07-25T05:57:19;19.48;;;12.40;;
61036;SDS011;57313;47.040;15.498;2022-07-25T05:59:46;19.88;;;12.25;;
61036;SDS011;57313;47.040;15.498;2022-07-25T06:02:14;20.65;;;12.63;;
61036;SDS011;57313;47.040;15.498;2022-07-25T06:04:41;23.88;;;13.50;;
61036;SDS011;57313;47.040;15.498;2022-07-25T06:07:08;22.60;;;13.43;;
61036;SDS011;57313;47.040;15.498;2022-07-25T06:09:40;19.17;;;12.60;;
61036;SDS011;57313;47.040;15.498;2022-07-25T06:12:07;19.48;;;13.20;;
61036;SDS011;57313;47.040;15.498;2022-07-25T06:14:36;21.05;;;13.45;;
61036;SDS011;57313;47.040;15.498;2022-07-25T06:17:03;20.10;;;12.80;;
61036;SDS011;57313;47.040;15.498;2022-07-25T06:19:30;17.35;;;11.63;;
61036;SDS011;57313;47.040;15.498;2022-07-25T06:21:57;17.67;;;11.82;;
61036;SDS011;57313;47.040;15.498;2022-07-25T06:24:24;19.13;;;12.48;;
61036;SDS011;57313;47.040;15.498;2022-07-25T06:26:52;18.60;;;11.98;;
61036;SDS011;57313;47.040;15.498;2022-07-25T06:29:20;18.33;;;11.98;;
61036;SDS011;57313;47.040;15.498;2022-07-25T06:31:50;20.02;;;12.23;;
61036;SDS011;57313;47.040;15.498;2022-07-25T06:34:17;21.55;;;13.55;;
61036;SDS011;57313;47.040;15.498;2022-07-25T06:36:44;22.58;;;12.38;;
61036;SDS011;57313;47.040;15.498;2022-07-25T06:39:12;17.52;;;11.98;;
61036;SDS011;57313;47.040;15.498;2022-07-25T06:41:39;20.95;;;13.00;;
61036;SDS011;57313;47.040;15.498;2022-07-25T06:44:06;17.05;;;11.65;;
61036;SDS011;57313;47.040;15.498;2022-07-25T06:46:34;20.05;;;11.88;;
61036;SDS011;57313;47.040;15.498;2022-07-25T06:49:03;18.45;;;13.10;;
61036;SDS011;57313;47.040;15.498;2022-07-25T06:51:34;20.45;;;12.20;;
61036;SDS011;57313;47.040;15.498;2022-07-25T06:54:01;19.75;;;11.90;;
61036;SDS011;57313;47.040;15.498;2022-07-25T06:56:29;17.67;;;11.60;;
61036;SDS011;57313;47.040;15.498;2022-07-25T06:58:56;16.05;;;11.40;;
61036;SDS011;57313;47.040;15.498;2022-07-25T07:01:24;18.83;;;12.38;;
61036;SDS011;57313;47.040;15.498;2022-07-25T07:03:51;19.88;;;12.40;;
61036;SDS011;57313;47.040;15.498;2022-07-25T07:06:20;16.55;;;10.90;;
61036;SDS011;57313;47.040;15.498;2022-07-25T07:08:47;17.77;;;10.90;;
61036;SDS011;57313;47.040;15.498;2022-07-25T07:11:14;18.23;;;11.38;;
61036;SDS011;57313;47.040;15.498;2022-07-25T07:13:41;18.98;;;11.05;;
61036;SDS011;57313;47.040;15.498;2022-07-25T07:16:08;16.20;;;10.50;;
61036;SDS011;57313;47.040;15.498;2022-07-25T07:18:35;19.90;;;10.70;;
61036;SDS011;57313;47.040;15.498;2022-07-25T07:21:02;17.05;;;10.35;;
61036;SDS011;57313;47.040;15.498;2022-07-25T07:23:31;16.73;;;10.70;;
61036;SDS011;57313;47.040;15.498;2022-07-25T07:25:58;18.17;;;10.98;;
61036;SDS011;57313;47.040;15.498;2022-07-25T07:28:25;17.08;;;9.80;;
61036;SDS011;57313;47.040;15.498;2022-07-25T07:30:52;15.43;;;9.88;;
61036;SDS011;57313;47.040;15.498;2022-07-25T07:33:39;16.60;;;9.98;;
61036;SDS011;57313;47.040;15.498;2022-07-25T07:36:07;18.58;;;11.52;;
61036;SDS011;57313;47.040;15.498;2022-07-25T07:38:36;17.55;;;11.35;;
61036;SDS011;57313;47.040;15.498;2022-07-25T07:41:03;16.63;;;10.77;;
61036;SDS011;57313;47.040;15.498;2022-07-25T07:43:30;18.55;;;10.75;;
61036;SDS011;57313;47.040;15.498;2022-07-25T07:45:57;15.73;;;10.15;;
61036;SDS011;57313;47.040;15.498;2022-07-25T07:48:25;17.33;;;10.45;;
61036;SDS011;57313;47.040;15.498;2022-07-25T07:50:52;15.30;;;9.82;;
61036;SDS011;57313;47.040;15.498;2022-07-25T07:53:19;17.48;;;10.63;;
61036;SDS011;57313;47.040;15.498;2022-07-25T07:55:47;18.02;;;10.13;;
61036;SDS011;57313;47.040;15.498;2022-07-25T07:58:15;17.85;;;10.57;;
61036;SDS011;57313;47.040;15.498;2022-07-25T08:00:46;15.88;;;10.35;;
61036;SDS011;57313;47.040;15.498;2022-07-25T08:03:16;16.55;;;9.90;;
61036;SDS011;57313;47.040;15.498;2022-07-25T08:05:46;20.58;;;10.77;;
61036;SDS011;57313;47.040;15.498;2022-07-25T08:08:14;17.13;;;9.90;;
61036;SDS011;57313;47.040;15.498;2022-07-25T08:10:42;16.55;;;9.75;;
61036;SDS011;57313;47.040;15.498;2022-07-25T08:13:13;15.50;;;9.68;;
61036;SDS011;57313;47.040;15.498;2022-07-25T08:15:41;14.85;;;10.23;;
61036;SDS011;57313;47.040;15.498;2022-07-25T08:18:09;14.40;;;9.40;;
61036;SDS011;57313;47.040;15.498;2022-07-25T08:20:43;13.93;;;9.57;;
61036;SDS011;57313;47.040;15.498;2022-07-25T08:23:10;15.50;;;10.00;;
61036;SDS011;57313;47.040;15.498;2022-07-25T08:25:38;16.02;;;9.43;;
61036;SDS011;57313;47.040;15.498;2022-07-25T08:28:05;15.05;;;9.50;;
61036;SDS011;57313;47.040;15.498;2022-07-25T08:30:35;15.35;;;9.65;;
61036;SDS011;57313;47.040;15.498;2022-07-25T08:33:04;17.33;;;10.63;;
61036;SDS011;57313;47.040;15.498;2022-07-25T08:35:32;15.85;;;9.77;;
61036;SDS011;57313;47.040;15.498;2022-07-25T08:38:01;14.52;;;9.50;;
61036;SDS011;57313;47.040;15.498;2022-07-25T08:40:30;15.05;;;9.02;;
61036;SDS011;57313;47.040;15.498;2022-07-25T08:42:58;16.33;;;9.65;;
61036;SDS011;57313;47.040;15.498;2022-07-25T08:45:26;16.10;;;9.82;;
61036;SDS011;57313;47.040;15.498;2022-07-25T08:47:56;14.45;;;9.90;;
61036;SDS011;57313;47.040;15.498;2022-07-25T08:50:24;16.45;;;9.80;;
61036;SDS011;57313;47.040;15.498;2022-07-25T08:52:53;15.70;;;9.45;;
61036;SDS011;57313;47.040;15.498;2022-07-25T08:55:41;15.00;;;9.55;;
61036;SDS011;57313;47.040;15.498;2022-07-25T08:58:09;14.27;;;9.52;;
61036;SDS011;57313;47.040;15.498;2022-07-25T09:00:37;15.32;;;10.05;;
61036;SDS011;57313;47.040;15.498;2022-07-25T09:03:05;15.85;;;9.35;;
61036;SDS011;57313;47.040;15.498;2022-07-25T09:05:33;15.15;;;9.40;;
61036;SDS011;57313;47.040;15.498;2022-07-25T09:08:05;15.05;;;9.88;;
61036;SDS011;57313;47.040;15.498;2022-07-25T09:10:34;16.23;;;9.55;;
61036;SDS011;57313;47.040;15.498;2022-07-25T09:13:02;13.75;;;8.85;;
61036;SDS011;57313;47.040;15.498;2022-07-25T09:15:32;14.48;;;8.98;;
61036;SDS011;57313;47.040;15.498;2022-07-25T09:18:02;13.95;;;8.68;;
61036;SDS011;57313;47.040;15.498;2022-07-25T09:20:39;16.05;;;9.13;;
61036;SDS011;57313;47.040;15.498;2022-07-25T09:23:07;14.50;;;8.93;;
61036;SDS011;57313;47.040;15.498;2022-07-25T09:25:35;17.02;;;9.23;;
61036;SDS011;57313;47.040;15.498;2022-07-25T09:28:10;19.52;;;9.30;;
61036;SDS011;57313;47.040;15.498;2022-07-25T09:30:38;17.05;;;9.38;;
61036;SDS011;57313;47.040;15.498;2022-07-25T09:33:06;15.77;;;8.82;;
61036;SDS011;57313;47.040;15.498;2022-07-25T09:35:34;14.00;;;8.07;;
61036;SDS011;57313;47.040;15.498;2022-07-25T09:38:11;14.93;;;8.57;;
61036;SDS011;57313;47.040;15.498;2022-07-25T09:40:41;15.13;;;8.98;;
61036;SDS011;57313;47.040;15.498;2022-07-25T09:43:19;15.52;;;8.85;;
61036;SDS011;57313;47.040;15.498;2022-07-25T09:45:50;13.75;;;8.55;;
61036;SDS011;57313;47.040;15.498;2022-07-25T09:48:18;15.13;;;8.80;;
61036;SDS011;57313;47.040;15.498;2022-07-25T09:50:45;21.60;;;9.27;;
61036;SDS011;57313;47.040;15.498;2022-07-25T09:53:14;15.70;;;9.18;;
61036;SDS011;57313;47.040;15.498;2022-07-25T09:55:41;18.58;;;9.13;;
61036;SDS011;57313;47.040;15.498;2022-07-25T09:58:09;16.58;;;9.73;;
61036;SDS011;57313;47.040;15.498;2022-07-25T10:00:36;15.10;;;9.32;;
61036;SDS011;57313;47.040;15.498;2022-07-25T10:03:13;14.30;;;8.75;;
61036;SDS011;57313;47.040;15.498;2022-07-25T10:05:49;14.27;;;8.65;;
61036;SDS011;57313;47.040;15.498;2022-07-25T10:08:29;15.25;;;8.93;;
61036;SDS011;57313;47.040;15.498;2022-07-25T10:11:01;15.48;;;9.13;;
61036;SDS011;57313;47.040;15.498;2022-07-25T10:13:29;16.52;;;9.23;;
61036;SDS011;57313;47.040;15.498;2022-07-25T10:15:58;15.00;;;8.65;;
61036;SDS011;57313;47.040;15.498;2022-07-25T10:18:26;14.30;;;8.80;;
61036;SDS011;57313;47.040;15.498;2022-07-25T10:20:55;15.05;;;9.20;;
61036;SDS011;57313;47.040;15.498;2022-07-25T10:24:00;15.38;;;8.95;;
61036;SDS011;57313;47.040;15.498;2022-07-25T10:26:30;15.35;;;9.18;;
61036;SDS011;57313;47.040;15.498;2022-07-25T10:28:58;15.60;;;8.48;;
61036;SDS011;57313;47.040;15.498;2022-07-25T10:31:26;15.52;;;8.73;;
61036;SDS011;57313;47.040;15.498;2022-07-25T10:34:01;14.15;;;9.18;;
61036;SDS011;57313;47.040;15.498;2022-07-25T10:36:39;15.60;;;8.80;;
61036;SDS011;57313;47.040;15.498;2022-07-25T10:39:11;13.35;;;8.50;;
61036;SDS011;57313;47.040;15.498;2022-07-25T10:41:40;14.13;;;8.52;;
61036;SDS011;57313;47.040;15.498;2022-07-25T10:44:10;13.80;;;8.98;;
61036;SDS011;57313;47.040;15.498;2022-07-25T10:46:39;14.85;;;9.07;;
61036;SDS011;57313;47.040;15.498;2022-07-25T10:49:07;14.00;;;8.55;;
61036;SDS011;57313;47.040;15.498;2022-07-25T10:51:50;16.67;;;9.07;;
61036;SDS011;57313;47.040;15.498;2022-07-25T10:54:22;13.98;;;9.00;;
61036;SDS011;57313;47.040;15.498;2022-07-25T10:56:50;19.08;;;9.13;;
61036;SDS011;57313;47.040;15.498;2022-07-25T10:59:25;15.57;;;8.73;;
61036;SDS011;57313;47.040;15.498;2022-07-25T11:01:54;15.90;;;9.50;;
61036;SDS011;57313;47.040;15.498;2022-07-25T11:04:21;14.68;;;8.98;;
61036;SDS011;57313;47.040;15.498;2022-07-25T11:06:49;13.00;;;8.38;;
61036;SDS011;57313;47.040;15.498;2022-07-25T11:09:17;13.07;;;8.43;;
61036;SDS011;57313;47.040;15.498;2022-07-25T11:11:54;15.18;;;9.57;;
61036;SDS011;57313;47.040;15.498;2022-07-25T11:14:24;14.30;;;8.93;;
61036;SDS011;57313;47.040;15.498;2022-07-25T11:16:55;13.07;;;8.70;;
61036;SDS011;57313;47.040;15.498;2022-07-25T11:19:24;14.77;;;8.75;;
61036;SDS011;57313;47.040;15.498;2022-07-25T11:21:52;13.65;;;8.20;;
61036;SDS011;57313;47.040;15.498;2022-07-25T11:24:21;13.13;;;8.30;;
61036;SDS011;57313;47.040;15.498;2022-07-25T11:27:01;14.32;;;8.85;;
61036;SDS011;57313;47.040;15.498;2022-07-25T11:29:32;16.00;;;8.73;;
61036;SDS011;57313;47.040;15.498;2022-07-25T11:32:00;12.07;;;7.47;;
61036;SDS011;57313;47.040;15.498;2022-07-25T11:34:29;12.75;;;8.15;;
61036;SDS011;57313;47.040;15.498;2022-07-25T11:37:00;15.65;;;8.27;;
61036;SDS011;57313;47.040;15.498;2022-07-25T11:39:30;14.45;;;8.73;;
61036;SDS011;57313;47.040;15.498;2022-07-25T11:42:02;13.80;;;8.60;;
61036;SDS011;57313;47.040;15.498;2022-07-25T11:44:32;14.65;;;9.27;;
61036;SDS011;57313;47.040;15.498;2022-07-25T11:47:00;14.80;;;8.85;;
61036;SDS011;57313;47.040;15.498;2022-07-25T11:49:27;14.00;;;8.73;;
61036;SDS011;57313;47.040;15.498;2022-07-25T11:51:54;14.90;;;9.55;;
61036;SDS011;57313;47.040;15.498;2022-07-25T11:54:22;13.40;;;9.00;;
61036;SDS011;57313;47.040;15.498;2022-07-25T11:56:50;13.15;;;8.52;;
61036;SDS011;57313;47.040;15.498;2022-07-25T11:59:19;15.02;;;8.35;;
61036;SDS011;57313;47.040;15.498;2022-07-25T12:01:46;14.73;;;8.45;;
61036;SDS011;57313;47.040;15.498;2022-07-25T12:04:14;14.93;;;8.45;;
61036;SDS011;57313;47.040;15.498;2022-07-25T12:06:43;15.45;;;8.35;;
61036;SDS011;57313;47.040;15.498;2022-07-25T12:09:12;13.32;;;8.63;;
61036;SDS011;57313;47.040;15.498;2022-07-25T12:11:45;12.95;;;8.20;;
61036;SDS011;57313;47.040;15.498;2022-07-25T12:14:13;15.45;;;8.68;;
61036;SDS011;57313;47.040;15.498;2022-07-25T12:16:42;13.52;;;8.27;;
61036;SDS011;57313;47.040;15.498;2022-07-25T12:19:17;14.45;;;7.43;;
61036;SDS011;57313;47.040;15.498;2022-07-25T12:21:45;13.35;;;8.20;;
61036;SDS011;57313;47.040;15.498;2022-07-25T12:24:13;14.23;;;8.75;;
61036;SDS011;57313;47.040;15.498;2022-07-25T12:26:40;13.05;;;8.27;;
61036;SDS011;57313;47.040;15.498;2022-07-25T12:29:07;13.40;;;8.45;;
61036;SDS011;57313;47.040;15.498;2022-07-25T12:31:35;17.65;;;8.40;;
61036;SDS011;57313;47.040;15.498;2022-07-25T12:34:04;12.52;;;7.80;;
61036;SDS011;57313;47.040;15.498;2022-07-25T12:36:31;17.17;;;7.57;;
61036;SDS011;57313;47.040;15.498;2022-07-25T12:38:58;12.73;;;7.53;;
61036;SDS011;57313;47.040;15.498;2022-07-25T12:41:25;12.25;;;7.82;;
61036;SDS011;57313;47.040;15.498;2022-07-25T12:43:52;13.32;;;7.88;;
61036;SDS011;57313;47.040;15.498;2022-07-25T12:46:19;11.73;;;7.70;;
61036;SDS011;57313;47.040;15.498;2022-07-25T12:48:46;13.93;;;8.20;;
61036;SDS011;57313;47.040;15.498;2022-07-25T12:51:15;16.92;;;8.30;;
61036;SDS011;57313;47.040;15.498;2022-07-25T12:53:42;15.98;;;7.78;;
61036;SDS011;57313;47.040;15.498;2022-07-25T12:56:09;11.57;;;7.45;;
61036;SDS011;57313;47.040;15.498;2022-07-25T12:58:36;14.45;;;8.57;;
61036;SDS011;57313;47.040;15.498;2022-07-25T13:01:03;13.45;;;7.60;;
61036;SDS011;57313;47.040;15.498;2022-07-25T13:03:31;12.93;;;7.53;;
61036;SDS011;57313;47.040;15.498;2022-07-25T13:05:58;14.18;;;7.78;;
61036;SDS011;57313;47.040;15.498;2022-07-25T13:08:27;12.40;;;8.30;;
61036;SDS011;57313;47.040;15.498;2022-07-25T13:10:54;13.63;;;8.05;;
61036;SDS011;57313;47.040;15.498;2022-07-25T13:13:21;12.45;;;7.70;;
61036;SDS011;57313;47.040;15.498;2022-07-25T13:15:48;17.13;;;7.80;;
61036;SDS011;57313;47.040;15.498;2022-07-25T13:18:16;12.88;;;7.55;;
61036;SDS011;57313;47.040;15.498;2022-07-25T13:20:43;11.85;;;7.85;;
61036;SDS011;57313;47.040;15.498;2022-07-25T13:23:10;12.43;;;8.20;;
61036;SDS011;57313;47.040;15.498;2022-07-25T13:25:38;11.95;;;7.90;;
61036;SDS011;57313;47.040;15.498;2022-07-25T13:28:05;12.55;;;7.80;;
61036;SDS011;57313;47.040;15.498;2022-07-25T13:30:36;12.65;;;8.00;;
61036;SDS011;57313;47.040;15.498;2022-07-25T13:33:03;13.35;;;7.80;;
61036;SDS011;57313;47.040;15.498;2022-07-25T13:35:30;15.40;;;7.32;;
61036;SDS011;57313;47.040;15.498;2022-07-25T13:38:04;15.70;;;8.35;;
61036;SDS011;57313;47.040;15.498;2022-07-25T13:40:34;14.30;;;7.72;;
61036;SDS011;57313;47.040;15.498;2022-07-25T13:43:03;13.63;;;7.80;;
61036;SDS011;57313;47.040;15.498;2022-07-25T13:45:30;12.52;;;8.20;;
61036;SDS011;57313;47.040;15.498;2022-07-25T13:47:58;12.73;;;7.38;;
61036;SDS011;57313;47.040;15.498;2022-07-25T13:50:45;12.20;;;7.38;;
61036;SDS011;57313;47.040;15.498;2022-07-25T13:53:12;14.27;;;7.88;;
61036;SDS011;57313;47.040;15.498;2022-07-25T13:55:40;13.55;;;7.60;;
61036;SDS011;57313;47.040;15.498;2022-07-25T13:58:09;12.88;;;7.45;;
61036;SDS011;57313;47.040;15.498;2022-07-25T14:00:36;12.55;;;7.72;;
61036;SDS011;57313;47.040;15.498;2022-07-25T14:03:03;12.52;;;7.30;;
61036;SDS011;57313;47.040;15.498;2022-07-25T14:05:31;11.80;;;7.47;;
61036;SDS011;57313;47.040;15.498;2022-07-25T14:07:58;12.30;;;7.75;;
61036;SDS011;57313;47.040;15.498;2022-07-25T14:10:26;14.57;;;7.82;;
61036;SDS011;57313;47.040;15.498;2022-07-25T14:12:54;12.38;;;7.57;;
61036;SDS011;57313;47.040;15.498;2022-07-25T14:15:22;11.90;;;7.50;;
61036;SDS011;57313;47.040;15.498;2022-07-25T14:17:50;16.20;;;7.72;;
61036;SDS011;57313;47.040;15.498;2022-07-25T14:20:17;12.75;;;7.95;;
61036;SDS011;57313;47.040;15.498;2022-07-25T14:22:44;13.32;;;7.75;;